sensor_id;sensor_type;location;lat;lon;timestamp;pressure;altitude;pressure_sealevel;temperature;humidity
13209;BME280;6669;42.678;23.332;2023-05-07T00:00:00;94762.72;;;10.72;100.00
13209;BME280;6669;42.678;23.332;2023-05-07T00:02:29;94769.03;;;10.77;100.00
13209;BME280;6669;42.678;23.332;2023-05-07T00:04:57;94773.56;;;10.75;100.00
13209;BME280;6669;42.678;23.332;2023-05-07T00:07:27;94770.19;;;10.75;100.00
13209;BME280;6669;42.678;23.332;2023-05-07T00:09:55;94766.47;;;10.69;100.00
13209;BME280;6669;42.678;23.332;2023-05-07T00:12:23;94751.72;;;10.61;100.00
13209;BME280;6669;42.678;23.332;2023-05-07T00:14:51;94766.00;;;10.66;100.00
13209;BME280;6669;42.678;23.332;2023-05-07T00:17:19;94759.66;;;10.68;100.00
13209;BME280;6669;42.678;23.332;2023-05-07T00:19:47;94749.63;;;10.57;100.00
13209;BME280;6669;42.678;23.332;2023-05-07T00:22:16;94754.50;;;10.52;100.00
13209;BME280;6669;42.678;23.332;2023-05-07T00:24:45;94747.22;;;10.47;100.00
13209;BME280;6669;42.678;23.332;2023-05-07T00:27:13;94750.81;;;10.38;100.00
13209;BME280;6669;42.678;23.332;2023-05-07T00:29:41;94744.63;;;10.30;100.00
13209;BME280;6669;42.678;23.332;2023-05-07T00:32:09;94740.94;;;10.25;100.00
13209;BME280;6669;42.678;23.332;2023-05-07T00:34:37;94744.00;;;10.28;100.00
13209;BME280;6669;42.678;23.332;2023-05-07T00:37:06;94744.31;;;10.25;100.00
13209;BME280;6669;42.678;23.332;2023-05-07T00:39:34;94740.63;;;10.11;100.00
13209;BME280;6669;42.678;23.332;2023-05-07T00:42:03;94749.06;;;10.13;100.00
13209;BME280;6669;42.678;23.332;2023-05-07T00:44:31;94751.84;;;10.12;100.00
13209;BME280;6669;42.678;23.332;2023-05-07T00:47:01;94754.09;;;10.15;100.00
13209;BME280;6669;42.678;23.332;2023-05-07T00:49:37;94755.25;;;10.12;100.00
13209;BME280;6669;42.678;23.332;2023-05-07T00:52:06;94754.09;;;10.15;100.00
13209;BME280;6669;42.678;23.332;2023-05-07T00:54:34;94749.75;;;9.99;100.00
13209;BME280;6669;42.678;23.332;2023-05-07T00:57:04;94750.72;;;9.98;100.00
13209;BME280;6669;42.678;23.332;2023-05-07T00:59:33;94755.91;;;9.90;100.00
13209;BME280;6669;42.678;23.332;2023-05-07T01:02:01;94753.66;;;9.87;100.00
13209;BME280;6669;42.678;23.332;2023-05-07T01:04:29;94762.41;;;9.94;100.00
13209;BME280;6669;42.678;23.332;2023-05-07T01:06:59;94755.44;;;9.94;100.00
13209;BME280;6669;42.678;23.332;2023-05-07T01:09:29;94755.75;;;10.00;100.00
13209;BME280;6669;42.678;23.332;2023-05-07T01:11:57;94762.22;;;10.04;100.00
13209;BME280;6669;42.678;23.332;2023-05-07T01:14:27;94757.88;;;10.04;100.00
13209;BME280;6669;42.678;23.332;2023-05-07T01:16:56;94759.00;;;10.02;100.00
13209;BME280;6669;42.678;23.332;2023-05-07T01:19:25;94756.25;;;10.03;100.00
13209;BME280;6669;42.678;23.332;2023-05-07T01:22:00;94754.81;;;9.84;100.00
13209;BME280;6669;42.678;23.332;2023-05-07T01:24:31;94758.53;;;9.81;100.00
13209;BME280;6669;42.678;23.332;2023-05-07T01:26:59;94754.78;;;9.76;100.00
13209;BME280;6669;42.678;23.332;2023-05-07T01:29:28;94751.88;;;9.79;100.00
13209;BME280;6669;42.678;23.332;2023-05-07T01:31:57;94712.00;;;9.55;100.00
13209;BME280;6669;42.678;23.332;2023-05-07T01:34:28;94756.75;;;9.82;100.00
13209;BME280;6669;42.678;23.332;2023-05-07T01:36:58;94753.81;;;9.77;100.00
13209;BME280;6669;42.678;23.332;2023-05-07T01:39:28;94748.16;;;9.73;100.00
13209;BME280;6669;42.678;23.332;2023-05-07T01:41:58;94734.69;;;9.70;100.00
13209;BME280;6669;42.678;23.332;2023-05-07T01:44:27;94744.25;;;9.69;100.00
13209;BME280;6669;42.678;23.332;2023-05-07T01:46:56;94746.69;;;9.71;100.00
13209;BME280;6669;42.678;23.332;2023-05-07T01:49:25;94732.28;;;9.60;100.00
13209;BME280;6669;42.678;23.332;2023-05-07T01:51:53;94725.63;;;9.57;100.00
13209;BME280;6669;42.678;23.332;2023-05-07T01:54:25;94724.47;;;9.52;100.00
13209;BME280;6669;42.678;23.332;2023-05-07T01:56:55;94728.34;;;9.56;100.00
13209;BME280;6669;42.678;23.332;2023-05-07T01:59:25;94726.59;;;9.56;100.00
13209;BME280;6669;42.678;23.332;2023-05-07T02:01:53;94729.34;;;9.63;100.00
13209;BME280;6669;42.678;23.332;2023-05-07T02:04:21;94729.03;;;9.66;100.00
13209;BME280;6669;42.678;23.332;2023-05-07T02:06:49;94730.47;;;9.60;100.00
13209;BME280;6669;42.678;23.332;2023-05-07T02:09:16;94713.44;;;9.58;100.00
13209;BME280;6669;42.678;23.332;2023-05-07T02:11:45;94717.84;;;9.57;100.00
13209;BME280;6669;42.678;23.332;2023-05-07T02:14:13;94712.00;;;9.55;100.00
13209;BME280;6669;42.678;23.332;2023-05-07T02:16:43;94702.59;;;9.46;100.00
13209;BME280;6669;42.678;23.332;2023-05-07T02:19:11;94713.78;;;9.55;100.00
13209;BME280;6669;42.678;23.332;2023-05-07T02:21:39;94700.31;;;9.51;100.00
13209;BME280;6669;42.678;23.332;2023-05-07T02:24:07;94703.06;;;9.58;100.00
13209;BME280;6669;42.678;23.332;2023-05-07T02:26:35;94708.91;;;9.60;100.00
13209;BME280;6669;42.678;23.332;2023-05-07T02:29:03;94710.19;;;9.64;100.00
13209;BME280;6669;42.678;23.332;2023-05-07T02:31:31;94710.19;;;9.64;100.00
13209;BME280;6669;42.678;23.332;2023-05-07T02:34:01;94702.91;;;9.59;100.00
13209;BME280;6669;42.678;23.332;2023-05-07T02:36:30;94706.31;;;9.60;100.00
13209;BME280;6669;42.678;23.332;2023-05-07T02:38:58;94704.22;;;9.63;100.00
13209;BME280;6669;42.678;23.332;2023-05-07T02:41:26;94702.59;;;9.62;100.00
13209;BME280;6669;42.678;23.332;2023-05-07T02:43:54;94698.38;;;9.61;100.00
13209;BME280;6669;42.678;23.332;2023-05-07T02:46:22;94680.38;;;9.52;100.00
13209;BME280;6669;42.678;23.332;2023-05-07T02:48:50;94708.44;;;9.56;100.00
13209;BME280;6669;42.678;23.332;2023-05-07T02:51:20;94713.78;;;9.55;100.00
13209;BME280;6669;42.678;23.332;2023-05-07T02:53:51;94714.09;;;9.60;100.00
13209;BME280;6669;42.678;23.332;2023-05-07T02:56:19;94721.56;;;9.63;100.00
13209;BME280;6669;42.678;23.332;2023-05-07T02:58:47;94724.47;;;9.68;100.00
13209;BME280;6669;42.678;23.332;2023-05-07T03:01:15;94728.34;;;9.72;100.00
13209;BME280;6669;42.678;23.332;2023-05-07T03:03:44;94731.13;;;9.71;100.00
13209;BME280;6669;42.678;23.332;2023-05-07T03:06:12;94725.13;;;9.70;100.00
13209;BME280;6669;42.678;23.332;2023-05-07T03:08:41;94736.00;;;9.74;100.00
13209;BME280;6669;42.678;23.332;2023-05-07T03:11:09;94736.44;;;9.77;100.00
13209;BME280;6669;42.678;23.332;2023-05-07T03:13:37;94736.63;;;9.76;100.00
13209;BME280;6669;42.678;23.332;2023-05-07T03:16:06;94741.19;;;9.74;100.00
13209;BME280;6669;42.678;23.332;2023-05-07T03:18:34;94737.44;;;9.76;100.00
13209;BME280;6669;42.678;23.332;2023-05-07T03:21:02;94725.28;;;9.77;100.00
13209;BME280;6669;42.678;23.332;2023-05-07T03:23:30;94741.16;;;9.82;100.00
13209;BME280;6669;42.678;23.332;2023-05-07T03:25:59;94737.78;;;9.81;100.00
13209;BME280;6669;42.678;23.332;2023-05-07T03:28:27;94741.34;;;9.80;100.00
13209;BME280;6669;42.678;23.332;2023-05-07T03:30:55;94743.94;;;9.80;100.00
13209;BME280;6669;42.678;23.332;2023-05-07T03:33:23;94741.50;;;9.71;100.00
13209;BME280;6669;42.678;23.332;2023-05-07T03:35:51;94746.03;;;9.77;100.00
13209;BME280;6669;42.678;23.332;2023-05-07T03:38:19;94741.84;;;9.68;100.00
13209;BME280;6669;42.678;23.332;2023-05-07T03:40:47;94741.34;;;9.64;100.00
13209;BME280;6669;42.678;23.332;2023-05-07T03:43:17;94746.84;;;9.69;100.00
13209;BME280;6669;42.678;23.332;2023-05-07T03:45:45;94748.47;;;9.78;100.00
13209;BME280;6669;42.678;23.332;2023-05-07T03:48:12;94755.28;;;9.79;100.00
13209;BME280;6669;42.678;23.332;2023-05-07T03:50:40;94747.31;;;9.81;100.00
13209;BME280;6669;42.678;23.332;2023-05-07T03:53:08;94752.34;;;9.91;100.00
13209;BME280;6669;42.678;23.332;2023-05-07T03:55:36;94765.66;;;9.96;100.00
13209;BME280;6669;42.678;23.332;2023-05-07T03:58:04;94761.13;;;9.90;100.00
13209;BME280;6669;42.678;23.332;2023-05-07T04:00:33;94767.59;;;9.94;100.00
13209;BME280;6669;42.678;23.332;2023-05-07T04:03:05;94767.75;;;9.92;100.00
13209;BME280;6669;42.678;23.332;2023-05-07T04:05:34;94774.75;;;9.92;100.00
13209;BME280;6669;42.678;23.332;2023-05-07T04:08:02;94777.34;;;9.84;100.00
13209;BME280;6669;42.678;23.332;2023-05-07T04:10:30;94787.59;;;9.85;100.00
13209;BME280;6669;42.678;23.332;2023-05-07T04:12:58;94772.66;;;9.79;100.00
13209;BME280;6669;42.678;23.332;2023-05-07T04:15:26;94794.69;;;9.91;100.00
13209;BME280;6669;42.678;23.332;2023-05-07T04:17:55;94795.19;;;9.78;100.00
13209;BME280;6669;42.678;23.332;2023-05-07T04:20:23;94801.03;;;9.80;100.00
13209;BME280;6669;42.678;23.332;2023-05-07T04:22:51;94809.50;;;9.82;100.00
13209;BME280;6669;42.678;23.332;2023-05-07T04:25:19;94807.84;;;9.73;100.00
13209;BME280;6669;42.678;23.332;2023-05-07T04:27:47;94810.28;;;9.83;100.00
13209;BME280;6669;42.678;23.332;2023-05-07T04:30:15;94814.66;;;9.91;100.00
13209;BME280;6669;42.678;23.332;2023-05-07T04:32:43;94813.22;;;9.80;100.00
13209;BME280;6669;42.678;23.332;2023-05-07T04:35:13;94816.28;;;9.75;100.00
13209;BME280;6669;42.678;23.332;2023-05-07T04:37:41;94819.22;;;9.80;100.00
13209;BME280;6669;42.678;23.332;2023-05-07T04:40:09;94824.25;;;9.74;100.00
13209;BME280;6669;42.678;23.332;2023-05-07T04:42:38;94812.88;;;9.75;100.00
13209;BME280;6669;42.678;23.332;2023-05-07T04:45:06;94827.00;;;9.89;100.00
13209;BME280;6669;42.678;23.332;2023-05-07T04:47:35;94822.94;;;9.86;100.00
13209;BME280;6669;42.678;23.332;2023-05-07T04:50:03;94822.94;;;9.86;100.00
13209;BME280;6669;42.678;23.332;2023-05-07T04:52:32;94824.72;;;9.94;100.00
13209;BME280;6669;42.678;23.332;2023-05-07T04:55:00;94823.41;;;10.06;100.00
13209;BME280;6669;42.678;23.332;2023-05-07T04:57:29;94819.84;;;10.15;100.00
13209;BME280;6669;42.678;23.332;2023-05-07T04:59:57;94823.41;;;10.23;100.00
13209;BME280;6669;42.678;23.332;2023-05-07T05:02:25;94822.91;;;10.36;100.00
13209;BME280;6669;42.678;23.332;2023-05-07T05:04:53;94815.94;;;10.44;100.00
13209;BME280;6669;42.678;23.332;2023-05-07T05:07:21;94818.16;;;10.56;100.00
13209;BME280;6669;42.678;23.332;2023-05-07T05:09:50;94817.16;;;10.65;100.00
13209;BME280;6669;42.678;23.332;2023-05-07T05:12:18;94817.94;;;10.74;100.00
13209;BME280;6669;42.678;23.332;2023-05-07T05:14:46;94818.91;;;10.81;100.00
13209;BME280;6669;42.678;23.332;2023-05-07T05:17:14;94824.06;;;10.89;100.00
13209;BME280;6669;42.678;23.332;2023-05-07T05:19:42;94817.69;;;11.00;100.00
13209;BME280;6669;42.678;23.332;2023-05-07T05:22:10;94818.00;;;11.05;100.00
13209;BME280;6669;42.678;23.332;2023-05-07T05:24:38;94824.78;;;11.15;100.00
13209;BME280;6669;42.678;23.332;2023-05-07T05:27:07;94801.41;;;11.06;100.00
13209;BME280;6669;42.678;23.332;2023-05-07T05:29:35;94821.50;;;11.21;100.00
13209;BME280;6669;42.678;23.332;2023-05-07T05:32:03;94821.97;;;11.24;100.00
13209;BME280;6669;42.678;23.332;2023-05-07T05:34:31;94824.06;;;11.29;100.00
13209;BME280;6669;42.678;23.332;2023-05-07T05:37:00;94811.56;;;11.24;100.00
13209;BME280;6669;42.678;23.332;2023-05-07T05:39:36;94833.53;;;11.53;100.00
13209;BME280;6669;42.678;23.332;2023-05-07T05:42:09;94829.66;;;11.72;100.00
13209;BME280;6669;42.678;23.332;2023-05-07T05:44:37;94832.81;;;11.83;100.00
13209;BME280;6669;42.678;23.332;2023-05-07T05:47:05;94815.84;;;11.87;100.00
13209;BME280;6669;42.678;23.332;2023-05-07T05:49:33;94814.78;;;12.04;100.00
13209;BME280;6669;42.678;23.332;2023-05-07T05:52:02;94830.19;;;12.29;100.00
13209;BME280;6669;42.678;23.332;2023-05-07T05:54:30;94823.34;;;12.28;100.00
13209;BME280;6669;42.678;23.332;2023-05-07T05:56:57;94798.63;;;12.24;100.00
13209;BME280;6669;42.678;23.332;2023-05-07T05:59:27;94821.03;;;12.48;100.00
13209;BME280;6669;42.678;23.332;2023-05-07T06:01:55;94834.88;;;12.64;100.00
13209;BME280;6669;42.678;23.332;2023-05-07T06:04:23;94828.50;;;12.66;100.00
13209;BME280;6669;42.678;23.332;2023-05-07T06:06:51;94834.72;;;12.80;100.00
13209;BME280;6669;42.678;23.332;2023-05-07T06:09:19;94829.75;;;12.85;100.00
13209;BME280;6669;42.678;23.332;2023-05-07T06:11:47;94835.97;;;12.99;100.00
13209;BME280;6669;42.678;23.332;2023-05-07T06:14:16;94832.38;;;13.00;100.00
13209;BME280;6669;42.678;23.332;2023-05-07T06:16:45;94801.91;;;12.71;100.00
13209;BME280;6669;42.678;23.332;2023-05-07T06:19:16;94824.53;;;13.00;100.00
13209;BME280;6669;42.678;23.332;2023-05-07T06:21:52;94822.56;;;13.17;100.00
13209;BME280;6669;42.678;23.332;2023-05-07T06:24:20;94808.47;;;13.18;100.00
13209;BME280;6669;42.678;23.332;2023-05-07T06:26:48;94822.88;;;13.44;100.00
13209;BME280;6669;42.678;23.332;2023-05-07T06:29:15;94821.00;;;13.38;100.00
13209;BME280;6669;42.678;23.332;2023-05-07T06:31:43;94824.66;;;13.44;100.00
13209;BME280;6669;42.678;23.332;2023-05-07T06:34:13;94815.09;;;13.51;100.00
13209;BME280;6669;42.678;23.332;2023-05-07T06:36:41;94806.53;;;13.57;100.00
13209;BME280;6669;42.678;23.332;2023-05-07T06:39:09;94810.44;;;13.68;100.00
13209;BME280;6669;42.678;23.332;2023-05-07T06:41:37;94809.16;;;13.79;100.00
13209;BME280;6669;42.678;23.332;2023-05-07T06:44:05;94798.56;;;13.87;100.00
13209;BME280;6669;42.678;23.332;2023-05-07T06:46:35;94800.84;;;13.97;100.00
13209;BME280;6669;42.678;23.332;2023-05-07T06:49:03;94803.75;;;14.09;100.00
13209;BME280;6669;42.678;23.332;2023-05-07T06:51:32;94792.78;;;14.20;100.00
13209;BME280;6669;42.678;23.332;2023-05-07T06:54:01;94776.66;;;14.16;100.00
13209;BME280;6669;42.678;23.332;2023-05-07T06:56:30;94795.78;;;14.45;100.00
13209;BME280;6669;42.678;23.332;2023-05-07T06:58:59;94791.22;;;14.54;100.00
13209;BME280;6669;42.678;23.332;2023-05-07T07:01:27;94795.72;;;14.67;100.00
13209;BME280;6669;42.678;23.332;2023-05-07T07:03:56;94791.88;;;14.63;100.00
13209;BME280;6669;42.678;23.332;2023-05-07T07:06:24;94804.22;;;14.69;100.00
13209;BME280;6669;42.678;23.332;2023-05-07T07:08:53;94806.28;;;14.80;100.00
13209;BME280;6669;42.678;23.332;2023-05-07T07:11:21;94793.00;;;14.82;100.00
13209;BME280;6669;42.678;23.332;2023-05-07T07:13:49;94792.56;;;14.78;100.00
13209;BME280;6669;42.678;23.332;2023-05-07T07:16:17;94788.38;;;14.84;100.00
13209;BME280;6669;42.678;23.332;2023-05-07T07:18:45;94788.63;;;14.89;100.00
13209;BME280;6669;42.678;23.332;2023-05-07T07:21:13;94796.72;;;15.08;100.00
13209;BME280;6669;42.678;23.332;2023-05-07T07:23:41;94791.13;;;15.17;100.00
13209;BME280;6669;42.678;23.332;2023-05-07T07:26:10;94791.16;;;15.31;100.00
13209;BME280;6669;42.678;23.332;2023-05-07T07:28:45;94775.06;;;15.34;100.00
13209;BME280;6669;42.678;23.332;2023-05-07T07:31:13;94791.63;;;15.55;100.00
13209;BME280;6669;42.678;23.332;2023-05-07T07:33:41;94784.00;;;15.66;100.00
13209;BME280;6669;42.678;23.332;2023-05-07T07:36:09;94797.34;;;15.78;100.00
13209;BME280;6669;42.678;23.332;2023-05-07T07:38:37;94788.44;;;15.79;100.00
13209;BME280;6669;42.678;23.332;2023-05-07T07:41:07;94797.34;;;15.92;100.00
13209;BME280;6669;42.678;23.332;2023-05-07T07:43:37;94796.97;;;16.08;100.00
13209;BME280;6669;42.678;23.332;2023-05-07T07:46:05;94800.81;;;16.19;100.00
13209;BME280;6669;42.678;23.332;2023-05-07T07:48:33;94791.72;;;16.22;100.00
13209;BME280;6669;42.678;23.332;2023-05-07T07:51:01;94803.78;;;16.43;100.00
13209;BME280;6669;42.678;23.332;2023-05-07T07:53:29;94799.38;;;16.43;100.00
13209;BME280;6669;42.678;23.332;2023-05-07T07:55:57;94811.66;;;16.63;100.00
13209;BME280;6669;42.678;23.332;2023-05-07T07:58:25;94805.78;;;16.74;100.00
13209;BME280;6669;42.678;23.332;2023-05-07T08:00:55;94810.84;;;16.62;100.00
13209;BME280;6669;42.678;23.332;2023-05-07T08:03:23;94795.28;;;16.67;100.00
13209;BME280;6669;42.678;23.332;2023-05-07T08:05:51;94787.78;;;16.78;100.00
13209;BME280;6669;42.678;23.332;2023-05-07T08:08:18;94781.72;;;16.77;100.00
13209;BME280;6669;42.678;23.332;2023-05-07T08:10:46;94796.47;;;16.85;100.00
13209;BME280;6669;42.678;23.332;2023-05-07T08:13:17;94795.63;;;16.84;100.00
13209;BME280;6669;42.678;23.332;2023-05-07T08:15:45;94802.91;;;16.96;100.00
13209;BME280;6669;42.678;23.332;2023-05-07T08:18:14;94797.44;;;17.04;100.00
13209;BME280;6669;42.678;23.332;2023-05-07T08:20:42;94798.38;;;17.16;100.00
13209;BME280;6669;42.678;23.332;2023-05-07T08:23:10;94785.66;;;17.20;100.00
13209;BME280;6669;42.678;23.332;2023-05-07T08:25:38;94791.03;;;17.32;100.00
13209;BME280;6669;42.678;23.332;2023-05-07T08:28:06;94779.88;;;17.43;100.00
13209;BME280;6669;42.678;23.332;2023-05-07T08:30:35;94790.25;;;17.63;100.00
13209;BME280;6669;42.678;23.332;2023-05-07T08:33:03;94789.47;;;17.63;100.00
13209;BME280;6669;42.678;23.332;2023-05-07T08:35:33;94784.03;;;17.90;100.00
13209;BME280;6669;42.678;23.332;2023-05-07T08:38:01;94786.59;;;18.03;100.00
13209;BME280;6669;42.678;23.332;2023-05-07T08:40:34;94776.88;;;18.29;100.00
13209;BME280;6669;42.678;23.332;2023-05-07T08:43:05;94775.25;;;18.28;100.00
13209;BME280;6669;42.678;23.332;2023-05-07T08:45:34;94784.84;;;18.41;100.00
13209;BME280;6669;42.678;23.332;2023-05-07T08:48:06;94772.00;;;18.51;100.00
13209;BME280;6669;42.678;23.332;2023-05-07T08:50:38;94756.31;;;18.38;100.00
13209;BME280;6669;42.678;23.332;2023-05-07T08:53:06;94760.03;;;18.30;100.00
13209;BME280;6669;42.678;23.332;2023-05-07T08:55:34;94762.78;;;17.91;97.92
13209;BME280;6669;42.678;23.332;2023-05-07T08:58:03;94770.53;;;18.37;100.00
13209;BME280;6669;42.678;23.332;2023-05-07T09:00:33;94767.50;;;18.58;98.61
13209;BME280;6669;42.678;23.332;2023-05-07T09:03:02;94761.06;;;18.73;95.23
13209;BME280;6669;42.678;23.332;2023-05-07T09:05:30;94769.09;;;18.78;94.74
13209;BME280;6669;42.678;23.332;2023-05-07T09:08:02;94766.28;;;18.98;93.58
13209;BME280;6669;42.678;23.332;2023-05-07T09:10:34;94759.44;;;19.09;92.18
13209;BME280;6669;42.678;23.332;2023-05-07T09:13:03;94748.41;;;19.31;92.26
13209;BME280;6669;42.678;23.332;2023-05-07T09:15:31;94753.06;;;19.47;89.10
13209;BME280;6669;42.678;23.332;2023-05-07T09:18:00;94749.78;;;19.64;88.73
13209;BME280;6669;42.678;23.332;2023-05-07T09:20:30;94742.00;;;19.69;85.09
13209;BME280;6669;42.678;23.332;2023-05-07T09:22:59;94738.69;;;19.62;84.41
13209;BME280;6669;42.678;23.332;2023-05-07T09:25:28;94740.53;;;19.73;82.87
13209;BME280;6669;42.678;23.332;2023-05-07T09:27:56;94745.28;;;19.83;80.94
13209;BME280;6669;42.678;23.332;2023-05-07T09:30:27;94745.44;;;20.00;79.01
13209;BME280;6669;42.678;23.332;2023-05-07T09:32:56;94742.91;;;20.05;75.48
13209;BME280;6669;42.678;23.332;2023-05-07T09:35:24;94735.22;;;20.03;73.86
13209;BME280;6669;42.678;23.332;2023-05-07T09:37:55;94731.88;;;20.08;73.61
13209;BME280;6669;42.678;23.332;2023-05-07T09:40:25;94717.09;;;20.19;71.30
13209;BME280;6669;42.678;23.332;2023-05-07T09:42:54;94722.84;;;20.28;71.97
13209;BME280;6669;42.678;23.332;2023-05-07T09:45:22;94725.00;;;20.42;72.81
13209;BME280;6669;42.678;23.332;2023-05-07T09:47:55;94712.50;;;20.50;71.40
13209;BME280;6669;42.678;23.332;2023-05-07T09:50:27;94718.91;;;20.66;72.85
13209;BME280;6669;42.678;23.332;2023-05-07T09:52:56;94719.03;;;20.47;69.52
13209;BME280;6669;42.678;23.332;2023-05-07T09:55:26;94716.16;;;20.61;69.29
13209;BME280;6669;42.678;23.332;2023-05-07T09:57:54;94713.41;;;20.55;69.60
13209;BME280;6669;42.678;23.332;2023-05-07T10:00:23;94712.94;;;20.58;69.21
13209;BME280;6669;42.678;23.332;2023-05-07T10:02:54;94697.44;;;20.74;67.75
13209;BME280;6669;42.678;23.332;2023-05-07T10:05:24;94710.28;;;21.11;68.10
13209;BME280;6669;42.678;23.332;2023-05-07T10:07:53;94709.59;;;21.45;64.90
13209;BME280;6669;42.678;23.332;2023-05-07T10:10:22;94708.41;;;21.52;61.58
13209;BME280;6669;42.678;23.332;2023-05-07T10:12:52;94710.13;;;21.59;61.14
13209;BME280;6669;42.678;23.332;2023-05-07T10:15:21;94696.56;;;21.89;60.25
13209;BME280;6669;42.678;23.332;2023-05-07T10:17:51;94698.66;;;21.87;60.34
13209;BME280;6669;42.678;23.332;2023-05-07T10:20:21;94692.72;;;21.80;58.61
13209;BME280;6669;42.678;23.332;2023-05-07T10:22:50;94698.56;;;21.99;59.67
13209;BME280;6669;42.678;23.332;2023-05-07T10:25:22;94698.50;;;21.94;60.50
13209;BME280;6669;42.678;23.332;2023-05-07T10:27:53;94691.59;;;21.93;58.74
13209;BME280;6669;42.678;23.332;2023-05-07T10:30:27;94680.75;;;22.11;59.56
13209;BME280;6669;42.678;23.332;2023-05-07T10:33:02;94680.75;;;22.11;59.58
13209;BME280;6669;42.678;23.332;2023-05-07T10:35:38;94674.38;;;22.29;60.26
13209;BME280;6669;42.678;23.332;2023-05-07T10:38:07;94673.06;;;22.10;57.80
13209;BME280;6669;42.678;23.332;2023-05-07T10:40:35;94660.31;;;22.07;58.97
13209;BME280;6669;42.678;23.332;2023-05-07T10:43:06;94673.69;;;22.17;58.16
13209;BME280;6669;42.678;23.332;2023-05-07T10:45:36;94674.81;;;22.60;57.81
13209;BME280;6669;42.678;23.332;2023-05-07T10:48:10;94674.53;;;23.28;56.65
13209;BME280;6669;42.678;23.332;2023-05-07T10:51:17;94674.56;;;23.93;54.89
13209;BME280;6669;42.678;23.332;2023-05-07T10:53:45;94665.13;;;24.61;53.98
13209;BME280;6669;42.678;23.332;2023-05-07T10:56:26;94668.75;;;24.92;52.85
13209;BME280;6669;42.678;23.332;2023-05-07T11:02:11;94653.19;;;25.68;51.88
13209;BME280;6669;42.678;23.332;2023-05-07T11:04:41;94654.25;;;25.93;50.45
13209;BME280;6669;42.678;23.332;2023-05-07T11:07:31;94665.41;;;26.00;50.74
13209;BME280;6669;42.678;23.332;2023-05-07T11:10:03;94664.09;;;25.51;50.29
13209;BME280;6669;42.678;23.332;2023-05-07T11:13:02;94660.38;;;25.47;52.37
13209;BME280;6669;42.678;23.332;2023-05-07T11:15:41;94653.72;;;25.70;51.21
13209;BME280;6669;42.678;23.332;2023-05-07T11:18:13;94661.19;;;25.84;49.81
13209;BME280;6669;42.678;23.332;2023-05-07T11:20:49;94652.09;;;25.90;50.43
13209;BME280;6669;42.678;23.332;2023-05-07T11:23:57;94654.78;;;25.79;50.27
13209;BME280;6669;42.678;23.332;2023-05-07T11:26:27;94647.25;;;26.43;49.52
13209;BME280;6669;42.678;23.332;2023-05-07T11:28:56;94645.47;;;26.13;48.85
13209;BME280;6669;42.678;23.332;2023-05-07T11:31:27;94639.72;;;26.56;49.44
13209;BME280;6669;42.678;23.332;2023-05-07T11:33:58;94629.16;;;27.01;47.29
13209;BME280;6669;42.678;23.332;2023-05-07T11:36:32;94637.44;;;26.94;47.16
13209;BME280;6669;42.678;23.332;2023-05-07T11:39:00;94635.25;;;27.06;46.46
13209;BME280;6669;42.678;23.332;2023-05-07T11:41:35;94639.88;;;26.90;47.19
13209;BME280;6669;42.678;23.332;2023-05-07T11:44:04;94641.19;;;27.43;45.96
13209;BME280;6669;42.678;23.332;2023-05-07T11:46:32;94637.16;;;27.80;45.84
13209;BME280;6669;42.678;23.332;2023-05-07T11:49:02;94643.09;;;26.87;46.84
13209;BME280;6669;42.678;23.332;2023-05-07T11:51:31;94638.44;;;27.14;46.29
13209;BME280;6669;42.678;23.332;2023-05-07T11:53:58;94639.19;;;26.59;46.22
13209;BME280;6669;42.678;23.332;2023-05-07T11:56:26;94637.59;;;26.58;46.27
13209;BME280;6669;42.678;23.332;2023-05-07T11:58:54;94636.13;;;26.16;46.76
13209;BME280;6669;42.678;23.332;2023-05-07T12:01:22;94632.16;;;26.84;46.81
13209;BME280;6669;42.678;23.332;2023-05-07T12:03:50;94630.41;;;27.59;46.40
13209;BME280;6669;42.678;23.332;2023-05-07T12:06:19;94625.25;;;28.26;45.13
13209;BME280;6669;42.678;23.332;2023-05-07T12:08:47;94622.97;;;27.85;45.62
13209;BME280;6669;42.678;23.332;2023-05-07T12:11:18;94612.72;;;28.46;45.30
13209;BME280;6669;42.678;23.332;2023-05-07T12:13:49;94579.69;;;28.36;45.07
13209;BME280;6669;42.678;23.332;2023-05-07T12:16:17;94604.66;;;29.13;44.42
13209;BME280;6669;42.678;23.332;2023-05-07T12:18:46;94618.38;;;28.44;43.35
13209;BME280;6669;42.678;23.332;2023-05-07T12:21:14;94599.44;;;28.16;44.67
13209;BME280;6669;42.678;23.332;2023-05-07T12:23:46;94608.53;;;28.15;44.04
13209;BME280;6669;42.678;23.332;2023-05-07T12:26:14;94600.47;;;28.69;44.65
13209;BME280;6669;42.678;23.332;2023-05-07T12:28:42;94591.09;;;28.91;44.60
13209;BME280;6669;42.678;23.332;2023-05-07T12:31:10;94582.47;;;29.13;43.93
13209;BME280;6669;42.678;23.332;2023-05-07T12:33:39;94586.53;;;29.29;41.66
13209;BME280;6669;42.678;23.332;2023-05-07T12:36:08;94583.69;;;28.82;41.71
13209;BME280;6669;42.678;23.332;2023-05-07T12:38:37;94589.44;;;28.27;41.23
13209;BME280;6669;42.678;23.332;2023-05-07T12:41:08;94582.81;;;27.95;41.68
13209;BME280;6669;42.678;23.332;2023-05-07T12:43:36;94588.94;;;27.66;41.67
13209;BME280;6669;42.678;23.332;2023-05-07T12:46:06;94585.38;;;27.76;41.97
13209;BME280;6669;42.678;23.332;2023-05-07T12:48:37;94582.50;;;27.97;42.68
13209;BME280;6669;42.678;23.332;2023-05-07T12:51:06;94582.72;;;28.05;41.86
13209;BME280;6669;42.678;23.332;2023-05-07T12:53:40;94562.91;;;28.55;42.22
13209;BME280;6669;42.678;23.332;2023-05-07T12:56:10;94565.75;;;28.64;42.20
13209;BME280;6669;42.678;23.332;2023-05-07T12:58:38;94545.09;;;28.45;42.08
13209;BME280;6669;42.678;23.332;2023-05-07T13:01:07;94554.41;;;29.10;41.65
13209;BME280;6669;42.678;23.332;2023-05-07T13:03:37;94550.72;;;29.06;42.29
13209;BME280;6669;42.678;23.332;2023-05-07T13:06:07;94548.25;;;29.62;41.21
13209;BME280;6669;42.678;23.332;2023-05-07T13:08:38;94551.78;;;29.24;41.08